createdAt,value
2023-02-08T00:02:31.764Z,36.97
2023-02-08T00:05:18.994Z,29.50
2023-02-08T00:08:05.105Z,24.42
2023-02-08T00:10:50.775Z,22.70
2023-02-08T00:13:37.129Z,28.60
2023-02-08T00:16:23.703Z,22.85
2023-02-08T00:19:09.933Z,22.00
2023-02-08T00:21:55.784Z,21.75
2023-02-08T00:24:42.707Z,20.63
2023-02-08T00:27:34.671Z,32.17
2023-02-08T00:30:24.018Z,23.35
2023-02-08T00:33:10.994Z,23.55
2023-02-08T00:36:05.621Z,22.15
2023-02-08T00:38:51.752Z,26.45
2023-02-08T00:41:40.190Z,22.80
2023-02-08T00:44:27.430Z,22.83
2023-02-08T00:47:17.295Z,26.20
2023-02-08T00:50:03.044Z,30.77
2023-02-08T00:52:49.232Z,22.92
2023-02-08T00:55:55.322Z,36.55
2023-02-08T00:58:42.653Z,24.17
2023-02-08T01:01:30.533Z,24.25
2023-02-08T01:04:16.324Z,19.77
2023-02-08T01:07:05.847Z,22.42
2023-02-08T01:09:51.662Z,22.20
2023-02-08T01:12:39.873Z,28.75
2023-02-08T01:15:28.210Z,24.27
2023-02-08T01:18:14.184Z,25.42
2023-02-08T01:21:10.035Z,28.35
2023-02-08T01:23:56.113Z,29.40
2023-02-08T01:26:42.012Z,19.67
2023-02-08T01:29:27.899Z,25.48
2023-02-08T01:32:13.413Z,21.63
2023-02-08T01:34:59.223Z,25.95
2023-02-08T01:37:44.907Z,28.70
2023-02-08T01:40:31.637Z,25.23
2023-02-08T01:43:32.288Z,20.27
2023-02-08T01:46:18.012Z,23.00
2023-02-08T01:49:21.638Z,21.05
2023-02-08T01:52:25.502Z,20.02
2023-02-08T01:58:13.970Z,22.02
2023-02-08T02:01:02.679Z,20.73
2023-02-08T02:03:48.455Z,21.70
2023-02-08T02:06:37.230Z,21.35
2023-02-08T02:09:32.258Z,19.75
2023-02-08T02:12:19.156Z,21.55
2023-02-08T02:15:05.709Z,19.70
2023-02-08T02:17:51.806Z,18.77
2023-02-08T02:20:58.935Z,18.80
2023-02-08T02:24:22.154Z,18.27
2023-02-08T02:27:25.914Z,18.13
2023-02-08T02:30:59.234Z,19.60
2023-02-08T02:34:01.532Z,21.13
2023-02-08T02:41:04.696Z,21.10
2023-02-08T02:45:07.127Z,21.70
2023-02-08T02:52:41.500Z,24.90
2023-02-08T02:55:28.535Z,27.80
2023-02-08T03:09:10.932Z,20.63
2023-02-08T03:13:41.009Z,18.55
2023-02-08T03:18:10.940Z,24.88
2023-02-08T03:21:13.281Z,26.13
2023-02-08T03:42:06.780Z,21.83
2023-02-08T03:53:40.609Z,25.77
2023-02-08T03:56:43.463Z,21.73
2023-02-08T03:59:32.484Z,19.80
2023-02-08T04:02:20.897Z,22.13
2023-02-08T04:05:07.739Z,18.35
2023-02-08T04:07:53.658Z,20.00
2023-02-08T04:10:39.941Z,19.42
2023-02-08T04:13:25.678Z,24.20
2023-02-08T04:16:44.260Z,20.60
2023-02-08T04:19:29.930Z,24.10
2023-02-08T04:22:15.553Z,25.13
2023-02-08T04:25:01.212Z,24.23
2023-02-08T04:27:47.162Z,22.58
2023-02-08T04:30:33.282Z,21.95
2023-02-08T04:33:19.163Z,22.20
2023-02-08T04:36:06.193Z,26.35
2023-02-08T04:38:52.261Z,24.48
2023-02-08T04:41:39.100Z,21.95
2023-02-08T04:44:24.950Z,23.02
2023-02-08T04:47:10.879Z,21.90
2023-02-08T04:49:56.450Z,22.58
2023-02-08T04:52:42.247Z,21.77
2023-02-08T04:55:28.075Z,20.23
2023-02-08T04:58:13.920Z,19.15
2023-02-08T05:00:59.883Z,23.52
2023-02-08T05:03:45.550Z,22.33
2023-02-08T05:06:31.152Z,24.08
2023-02-08T05:09:16.905Z,30.40
2023-02-08T05:12:02.658Z,39.17
2023-02-08T05:14:48.163Z,30.45
2023-02-08T05:17:33.913Z,24.42
2023-02-08T05:20:19.523Z,25.38
2023-02-08T05:23:08.852Z,24.58
2023-02-08T05:25:54.897Z,26.30
2023-02-08T05:28:40.762Z,27.45
2023-02-08T05:31:26.812Z,28.42
2023-02-08T05:34:12.768Z,29.08
2023-02-08T05:36:58.489Z,28.48
2023-02-08T05:39:44.656Z,25.48
2023-02-08T05:42:32.512Z,27.98
2023-02-08T05:45:20.272Z,29.38
2023-02-08T05:48:06.156Z,41.38
2023-02-08T05:50:51.973Z,22.00
2023-02-08T05:53:39.197Z,28.50
2023-02-08T05:56:30.140Z,47.20
2023-02-08T05:59:18.197Z,21.20
2023-02-08T06:02:03.787Z,22.67
2023-02-08T06:04:49.634Z,31.70
2023-02-08T06:07:35.501Z,27.52
2023-02-08T06:10:21.236Z,32.58
2023-02-08T06:13:06.927Z,36.88
2023-02-08T06:15:54.318Z,26.90
2023-02-08T06:18:41.223Z,27.83
2023-02-08T06:21:28.482Z,22.15
2023-02-08T06:24:14.276Z,22.55
2023-02-08T06:27:00.025Z,23.38
2023-02-08T06:29:45.882Z,28.45
2023-02-08T06:32:32.151Z,26.23
2023-02-08T06:35:18.230Z,26.67
2023-02-08T06:38:04.331Z,21.35
2023-02-08T06:40:50.537Z,18.48
2023-02-08T06:43:36.420Z,27.10
2023-02-08T06:46:22.590Z,25.63
2023-02-08T06:49:08.316Z,27.25
2023-02-08T06:51:54.357Z,38.30
2023-02-08T06:54:40.063Z,32.08
2023-02-08T06:57:25.817Z,26.90
2023-02-08T07:00:12.411Z,24.45
2023-02-08T07:02:59.008Z,41.85
2023-02-08T07:05:58.715Z,38.47
2023-02-08T07:08:49.722Z,31.20
2023-02-08T07:11:35.281Z,33.17
2023-02-08T07:14:21.109Z,28.20
2023-02-08T07:17:07.136Z,35.10
2023-02-08T07:19:53.082Z,35.95
2023-02-08T07:22:39.595Z,35.75
2023-02-08T07:25:25.572Z,24.00
2023-02-08T07:28:11.523Z,38.60
2023-02-08T07:30:57.865Z,35.08
2023-02-08T07:33:44.453Z,32.67
2023-02-08T07:36:30.273Z,27.48
2023-02-08T07:39:16.167Z,32.97
2023-02-08T07:42:02.104Z,40.08
2023-02-08T07:44:53.796Z,28.63
2023-02-08T07:47:39.640Z,36.90
2023-02-08T07:50:25.327Z,49.08
2023-02-08T07:53:11.279Z,33.38
2023-02-08T07:55:57.171Z,28.52
2023-02-08T07:58:43.086Z,48.70
2023-02-08T08:01:28.872Z,26.85
2023-02-08T08:04:14.768Z,24.55
2023-02-08T08:07:00.280Z,24.27
2023-02-08T08:09:46.098Z,30.33
2023-02-08T08:12:31.793Z,33.92
2023-02-08T08:15:17.958Z,31.88
2023-02-08T08:18:04.039Z,27.77
2023-02-08T08:20:50.101Z,26.25
2023-02-08T08:23:36.437Z,29.95
2023-02-08T08:26:22.428Z,29.65
2023-02-08T08:29:09.349Z,76.70
2023-02-08T08:31:55.257Z,67.82
2023-02-08T08:34:53.522Z,91.53
2023-02-08T08:37:39.556Z,31.73
2023-02-08T08:40:25.369Z,26.35
2023-02-08T08:43:10.935Z,30.88
2023-02-08T08:45:57.813Z,31.25
2023-02-08T08:48:44.000Z,26.17
2023-02-08T08:51:31.887Z,101.88
2023-02-08T08:54:18.128Z,28.85
2023-02-08T08:57:04.068Z,30.02
2023-02-08T08:59:49.950Z,25.85
2023-02-08T09:02:39.925Z,28.45
2023-02-08T09:05:25.872Z,29.40
2023-02-08T09:08:13.903Z,30.15
2023-02-08T09:11:12.233Z,27.42
2023-02-08T09:13:58.052Z,33.05
2023-02-08T09:16:48.072Z,25.98
2023-02-08T09:19:34.154Z,29.60
2023-02-08T09:22:22.386Z,32.38
2023-02-08T09:25:08.254Z,36.53
2023-02-08T09:27:54.392Z,26.17
2023-02-08T09:30:40.092Z,24.15
2023-02-08T09:33:25.903Z,25.50
2023-02-08T09:36:11.636Z,25.25
2023-02-08T09:39:03.928Z,27.70
2023-02-08T09:42:08.394Z,24.00
2023-02-08T09:45:00.186Z,28.38
2023-02-08T09:48:15.301Z,102.25
2023-02-08T09:51:26.501Z,34.10
2023-02-08T09:54:26.882Z,29.15
2023-02-08T09:57:22.661Z,38.75
2023-02-08T10:00:14.290Z,26.27
2023-02-08T10:03:02.430Z,36.92
2023-02-08T10:05:48.349Z,31.20
2023-02-08T10:08:35.922Z,36.22
2023-02-08T10:11:40.465Z,26.25
2023-02-08T10:14:29.355Z,26.05
2023-02-08T10:17:47.515Z,42.95
2023-02-08T10:20:40.905Z,33.30
2023-02-08T10:26:31.640Z,31.60
2023-02-08T10:29:35.769Z,29.65
2023-02-08T10:32:45.781Z,30.63
2023-02-08T10:35:45.719Z,32.10
2023-02-08T10:38:45.451Z,45.95
2023-02-08T10:41:40.327Z,50.58
2023-02-08T10:44:44.367Z,42.45
2023-02-08T10:47:50.840Z,28.90
2023-02-08T10:50:43.373Z,41.30
2023-02-08T10:53:31.836Z,36.27
2023-02-08T10:56:33.296Z,25.83
2023-02-08T10:59:32.319Z,32.50
2023-02-08T11:02:37.508Z,33.97
2023-02-08T11:05:35.464Z,40.45
2023-02-08T11:08:30.288Z,44.50
2023-02-08T11:11:23.201Z,39.05
2023-02-08T11:14:35.076Z,47.07
2023-02-08T11:17:35.937Z,42.33
2023-02-08T11:20:37.738Z,44.90
2023-02-08T11:23:32.471Z,39.90
2023-02-08T11:26:28.925Z,43.33
2023-02-08T11:29:40.027Z,40.35
2023-02-08T11:32:26.089Z,37.63
2023-02-08T11:35:28.153Z,32.70
2023-02-08T11:38:29.668Z,34.80
2023-02-08T11:41:19.163Z,35.22
2023-02-08T11:44:28.802Z,33.10
2023-02-08T11:47:21.674Z,32.63
2023-02-08T11:50:08.954Z,25.63
2023-02-08T11:53:01.710Z,26.10
2023-02-08T11:56:02.001Z,28.35
2023-02-08T11:59:03.230Z,46.63
2023-02-08T12:01:48.907Z,75.78
2023-02-08T12:04:34.929Z,67.28
2023-02-08T12:07:51.756Z,33.15
2023-02-08T12:10:56.169Z,90.07
2023-02-08T12:14:02.980Z,45.95
2023-02-08T12:17:10.325Z,39.05
2023-02-08T12:19:59.355Z,51.70
2023-02-08T12:23:09.859Z,65.95
2023-02-08T12:26:12.186Z,66.00
2023-02-08T12:29:07.840Z,50.33
2023-02-08T12:32:15.141Z,27.73
2023-02-08T12:36:04.103Z,23.95
2023-02-08T12:39:20.848Z,39.47
2023-02-08T12:42:22.022Z,29.27
2023-02-08T12:45:36.184Z,32.83
2023-02-08T12:48:37.084Z,28.90
2023-02-08T12:51:40.140Z,47.00
2023-02-08T12:54:42.598Z,38.87
2023-02-08T12:57:31.785Z,34.38
2023-02-08T13:00:32.318Z,33.45
2023-02-08T13:03:32.117Z,55.55
2023-02-08T13:06:23.036Z,70.45
2023-02-08T13:09:35.338Z,79.32
2023-02-08T13:12:25.141Z,89.22
2023-02-08T13:15:30.608Z,60.22
2023-02-08T13:18:38.597Z,48.65
2023-02-08T13:21:27.193Z,24.75
2023-02-08T13:24:33.922Z,20.38
2023-02-08T13:27:23.394Z,17.17
2023-02-08T13:30:18.097Z,19.52
2023-02-08T13:33:19.083Z,18.75
2023-02-08T13:36:25.455Z,35.08
2023-02-08T13:39:40.120Z,31.98
2023-02-08T13:42:43.177Z,38.00
2023-02-08T13:45:39.721Z,21.70
2023-02-08T13:48:27.343Z,20.80
2023-02-08T13:51:31.371Z,17.38
2023-02-08T13:54:17.461Z,20.95
2023-02-08T13:57:05.230Z,62.70
2023-02-08T14:00:22.573Z,42.10
2023-02-08T14:03:08.393Z,27.95
2023-02-08T14:06:05.131Z,22.30
2023-02-08T14:09:02.835Z,29.77
2023-02-08T14:12:00.198Z,18.15
2023-02-08T14:15:34.000Z,19.60
2023-02-08T14:18:27.782Z,46.17
2023-02-08T14:21:28.476Z,32.63
2023-02-08T14:24:43.984Z,29.10
2023-02-08T14:27:40.239Z,18.77
2023-02-08T14:30:36.718Z,18.42
2023-02-08T14:33:29.275Z,24.58
2023-02-08T14:36:31.715Z,24.52
2023-02-08T14:39:29.794Z,24.67
2023-02-08T14:42:57.662Z,26.58
2023-02-08T14:45:45.796Z,24.00
2023-02-08T14:48:52.239Z,27.48
2023-02-08T14:51:41.358Z,34.00
2023-02-08T14:54:39.595Z,29.92
2023-02-08T14:57:28.076Z,28.15
2023-02-08T15:00:26.605Z,22.63
2023-02-08T15:03:15.000Z,29.73
2023-02-08T15:06:40.044Z,24.55
2023-02-08T15:09:28.830Z,33.22
2023-02-08T15:12:28.348Z,25.88
2023-02-08T15:15:39.773Z,17.92
2023-02-08T15:18:30.585Z,20.70
2023-02-08T15:21:21.457Z,45.80
2023-02-08T15:24:20.138Z,19.70
2023-02-08T15:27:23.036Z,36.50
2023-02-08T15:30:35.488Z,51.58
2023-02-08T15:33:21.334Z,26.20
2023-02-08T15:36:23.133Z,29.15
2023-02-08T15:39:34.118Z,22.77
2023-02-08T15:42:25.268Z,31.67
2023-02-08T15:45:26.653Z,22.70
2023-02-08T15:48:12.844Z,21.08
2023-02-08T15:51:00.312Z,33.10
2023-02-08T15:53:47.797Z,60.70
2023-02-08T15:56:39.481Z,53.88
2023-02-08T15:59:32.919Z,56.23
2023-02-08T16:02:22.938Z,35.70
2023-02-08T16:05:18.777Z,34.72
2023-02-08T16:08:05.110Z,34.70
2023-02-08T16:10:54.097Z,22.10
2023-02-08T16:13:45.625Z,24.75
2023-02-08T16:16:41.400Z,23.98
2023-02-08T16:19:32.281Z,22.92
2023-02-08T16:22:21.073Z,27.00
2023-02-08T16:25:36.390Z,28.15
2023-02-08T16:28:31.183Z,27.95
2023-02-08T16:31:21.248Z,25.02
2023-02-08T16:34:15.556Z,30.02
2023-02-08T16:37:02.626Z,25.85
2023-02-08T16:39:48.888Z,21.88
2023-02-08T16:42:39.749Z,31.38
2023-02-08T16:45:25.389Z,26.50
2023-02-08T16:48:36.166Z,24.67
2023-02-08T16:51:43.327Z,30.02
2023-02-08T16:54:29.187Z,34.45
2023-02-08T16:57:15.046Z,23.92
2023-02-08T17:00:00.902Z,27.67
2023-02-08T17:02:48.698Z,19.58
2023-02-08T17:05:38.885Z,19.77
2023-02-08T17:08:28.216Z,25.38
2023-02-08T17:11:16.276Z,22.75
2023-02-08T17:14:02.206Z,23.33
2023-02-08T17:16:48.989Z,26.02
2023-02-08T17:19:34.591Z,33.17
2023-02-08T17:22:26.770Z,33.33
2023-02-08T17:25:18.999Z,31.15
2023-02-08T17:28:09.902Z,35.58
2023-02-08T17:30:55.738Z,26.55
2023-02-08T17:33:42.192Z,23.45
2023-02-08T17:36:27.943Z,28.88
2023-02-08T17:39:13.942Z,31.80
2023-02-08T17:41:59.720Z,30.92
2023-02-08T17:44:47.124Z,35.25
2023-02-08T17:47:33.791Z,47.28
2023-02-08T17:50:21.189Z,43.92
2023-02-08T17:53:07.119Z,27.88
2023-02-08T17:55:54.750Z,33.10
2023-02-08T17:58:42.635Z,41.08
2023-02-08T18:01:28.877Z,38.40
2023-02-08T18:04:14.860Z,39.25
2023-02-08T18:07:07.977Z,28.08
2023-02-08T18:10:06.424Z,26.33
2023-02-08T18:12:52.198Z,28.02
2023-02-08T18:15:40.762Z,36.78
2023-02-08T18:18:26.666Z,31.00
2023-02-08T18:21:20.818Z,28.58
2023-02-08T18:24:06.894Z,37.97
2023-02-08T18:26:55.234Z,35.13
2023-02-08T18:29:41.157Z,41.50
2023-02-08T18:32:31.111Z,30.17
2023-02-08T18:35:17.029Z,37.88
2023-02-08T18:38:03.799Z,32.15
2023-02-08T18:40:50.057Z,36.85
2023-02-08T18:43:37.076Z,33.33
2023-02-08T18:46:25.923Z,24.38
2023-02-08T18:49:16.013Z,23.45
2023-02-08T18:52:05.002Z,28.52
2023-02-08T18:54:50.926Z,36.10
2023-02-08T18:57:40.167Z,56.22
2023-02-08T19:00:25.994Z,62.83
2023-02-08T19:03:12.545Z,39.50
2023-02-08T19:06:04.351Z,39.47
2023-02-08T19:08:52.511Z,41.33
2023-02-08T19:11:40.036Z,37.00
2023-02-08T19:14:30.268Z,49.33
2023-02-08T19:17:16.211Z,35.83
2023-02-08T19:20:06.856Z,41.03
2023-02-08T19:22:52.987Z,54.72
2023-02-08T19:25:40.910Z,40.08
2023-02-08T19:28:27.037Z,43.40
2023-02-08T19:31:23.010Z,55.08
2023-02-08T19:34:13.290Z,47.75
2023-02-08T19:37:00.293Z,47.60
2023-02-08T19:39:47.083Z,56.33
2023-02-08T19:42:33.215Z,49.88
2023-02-08T19:45:20.364Z,39.35
2023-02-08T19:48:06.463Z,43.30
2023-02-08T19:50:56.083Z,37.75
2023-02-08T19:53:47.424Z,68.28
2023-02-08T19:56:36.530Z,79.65
2023-02-08T19:59:29.443Z,90.78
2023-02-08T20:02:18.317Z,90.25
2023-02-08T20:05:05.128Z,83.93
2023-02-08T20:07:51.223Z,65.45
2023-02-08T20:10:45.506Z,61.53
2023-02-08T20:13:31.473Z,41.78
2023-02-08T20:16:17.900Z,43.08
2023-02-08T20:19:04.112Z,48.85
2023-02-08T20:21:49.892Z,41.92
2023-02-08T20:24:35.639Z,40.00
2023-02-08T20:27:21.354Z,47.70
2023-02-08T20:30:08.217Z,38.92
2023-02-08T20:32:55.155Z,51.85
2023-02-08T20:35:41.606Z,55.58
2023-02-08T20:38:27.568Z,45.38
2023-02-08T20:41:14.708Z,51.38
2023-02-08T20:44:00.788Z,50.08
2023-02-08T20:46:46.788Z,51.80
2023-02-08T20:49:32.960Z,57.67
2023-02-08T20:52:19.070Z,56.45
2023-02-08T20:55:05.341Z,51.35
2023-02-08T20:57:51.179Z,50.65
2023-02-08T21:00:42.650Z,55.95
2023-02-08T21:03:28.759Z,57.17
2023-02-08T21:06:17.004Z,43.75
2023-02-08T21:09:06.258Z,44.65
2023-02-08T21:11:52.091Z,49.97
2023-02-08T21:14:39.892Z,60.28
2023-02-08T21:17:25.800Z,53.00
2023-02-08T21:20:12.047Z,52.58
2023-02-08T21:22:59.841Z,47.90
2023-02-08T21:25:45.689Z,53.72
2023-02-08T21:28:31.506Z,59.80
2023-02-08T21:31:19.963Z,56.22
2023-02-08T21:34:06.860Z,57.10
2023-02-08T21:36:53.005Z,47.95
2023-02-08T21:39:39.194Z,51.95
2023-02-08T21:42:25.340Z,50.72
2023-02-08T21:45:12.075Z,54.60
2023-02-08T21:47:57.790Z,55.10
2023-02-08T21:51:03.753Z,53.15
2023-02-08T21:54:08.094Z,54.47
2023-02-08T21:56:54.091Z,50.67
2023-02-08T21:59:40.202Z,46.70
2023-02-08T22:02:28.818Z,49.75
2023-02-08T22:05:14.564Z,45.83
2023-02-08T22:08:00.825Z,51.78
2023-02-08T22:10:57.554Z,57.67
2023-02-08T22:13:44.839Z,52.35
2023-02-08T22:16:30.566Z,62.20
2023-02-08T22:19:16.203Z,64.47
2023-02-08T22:22:02.743Z,57.20
2023-02-08T22:24:48.544Z,58.03
2023-02-08T22:27:34.519Z,48.85
2023-02-08T22:30:22.440Z,49.33
2023-02-08T22:33:09.861Z,49.33
2023-02-08T22:35:56.141Z,55.45
2023-02-08T22:38:41.923Z,55.00
2023-02-08T22:41:27.819Z,61.13
2023-02-08T22:44:13.753Z,64.22
2023-02-08T22:47:01.771Z,57.20
2023-02-08T22:49:47.704Z,70.95
2023-02-08T22:52:34.632Z,53.65
2023-02-08T22:55:20.474Z,55.22
2023-02-08T22:58:06.391Z,55.80
2023-02-08T23:00:53.762Z,59.15
2023-02-08T23:03:40.312Z,62.03
2023-02-08T23:06:27.122Z,64.95
2023-02-08T23:09:13.287Z,44.95
2023-02-08T23:11:58.945Z,55.15
2023-02-08T23:14:44.624Z,55.90
2023-02-08T23:17:30.305Z,51.35
2023-02-08T23:20:16.119Z,52.17
2023-02-08T23:23:01.908Z,48.85
2023-02-08T23:25:47.988Z,49.60
2023-02-08T23:28:34.409Z,51.63
2023-02-08T23:31:21.590Z,50.30
2023-02-08T23:34:07.499Z,53.03
2023-02-08T23:36:54.352Z,46.38
2023-02-08T23:39:40.118Z,47.28
2023-02-08T23:42:26.179Z,45.53
2023-02-08T23:45:12.318Z,49.38
2023-02-08T23:47:58.464Z,46.13
2023-02-08T23:50:44.527Z,45.60
2023-02-08T23:53:31.169Z,53.72
2023-02-08T23:56:22.969Z,46.70
2023-02-08T23:59:10.824Z,44.58
